Time;durP1;ratioP1;P1;durP2;ratioP2;P2;SDS_P1;SDS_P2;PMS_P1;PMS_P2;Temp;Humidity;BMP_temperature;BMP_pressure;BME280_temperature;BME280_humidity;BME280_pressure;Samples;Min_cycle;Max_cycle;Signal;HPM_P1;HPM_P2
2022/10/17 00:00:16;;;;;;;12.10;3.50;;;12.60;99.90;;;;;;5055311;28;20336;-82
2022/10/17 00:02:42;;;;;;;7.40;3.25;;;12.60;99.90;;;;;;5038961;28;20059;-82
2022/10/17 00:05:07;;;;;;;12.23;3.38;;;12.60;99.90;;;;;;5071867;28;20046;-82
2022/10/17 00:07:33;;;;;;;9.20;3.72;;;12.60;99.90;;;;;;5038876;28;20048;-82
2022/10/17 00:09:59;;;;;;;9.02;3.22;;;12.60;99.90;;;;;;5071973;28;20347;-82
2022/10/17 00:12:24;;;;;;;12.23;3.87;;;12.50;99.90;;;;;;5055590;28;20165;-82
2022/10/17 00:14:50;;;;;;;12.00;3.45;;;12.50;99.90;;;;;;5055075;28;20302;-82
2022/10/17 00:17:16;;;;;;;6.87;3.27;;;12.50;99.90;;;;;;5072073;28;20036;-82
2022/10/17 00:19:41;;;;;;;11.70;3.60;;;12.50;99.90;;;;;;5055359;28;20287;-82
2022/10/17 00:22:07;;;;;;;7.73;3.13;;;12.50;99.90;;;;;;5072308;28;20283;-82
2022/10/17 00:24:33;;;;;;;14.75;3.45;;;12.50;99.90;;;;;;5055656;28;20302;-82
2022/10/17 00:26:58;;;;;;;9.20;3.05;;;12.40;99.90;;;;;;5054943;28;20032;-82
2022/10/17 00:29:24;;;;;;;10.27;2.97;;;12.40;99.90;;;;;;5055305;28;20044;-82
2022/10/17 00:31:54;;;;;;;6.88;2.92;;;12.40;99.90;;;;;;5038463;28;20173;-83
2022/10/17 00:34:20;;;;;;;9.23;2.85;;;12.40;99.90;;;;;;5038416;28;20071;-82
2022/10/17 00:36:46;;;;;;;8.02;2.85;;;12.40;99.90;;;;;;5055304;28;20511;-82
2022/10/17 00:39:12;;;;;;;9.93;2.80;;;12.40;99.90;;;;;;5071895;28;20040;-82
2022/10/17 00:41:37;;;;;;;8.95;3.05;;;12.40;99.90;;;;;;5054736;28;20044;-82
2022/10/17 00:44:07;;;;;;;10.38;3.20;;;12.50;99.90;;;;;;5038568;28;20040;-82
2022/10/17 00:46:37;;;;;;;8.55;3.40;;;12.50;99.90;;;;;;5072119;28;20446;-82
2022/10/17 00:49:06;;;;;;;10.73;3.33;;;12.50;99.90;;;;;;5054929;28;20078;-82
2022/10/17 00:51:58;;;;;;;9.30;3.05;;;12.50;99.90;;;;;;5071453;28;20040;-82
2022/10/17 00:54:33;;;;;;;11.73;3.20;;;12.60;99.90;;;;;;5068314;28;20041;-82
2022/10/17 00:57:00;;;;;;;8.15;3.83;;;12.60;99.90;;;;;;5071060;28;20135;-82
2022/10/17 00:59:27;;;;;;;8.85;2.90;;;12.70;99.90;;;;;;5054797;28;20089;-82
2022/10/17 01:02:00;;;;;;;9.00;2.90;;;12.60;99.90;;;;;;5054466;28;20443;-82
2022/10/17 01:04:26;;;;;;;9.55;3.13;;;12.70;99.90;;;;;;5054416;28;20110;-83
2022/10/17 01:06:52;;;;;;;11.45;2.65;;;12.70;99.90;;;;;;5070963;28;20072;-82
2022/10/17 01:09:18;;;;;;;7.88;3.10;;;12.70;99.90;;;;;;5071338;28;20047;-83
2022/10/17 01:12:00;;;;;;;9.20;3.47;;;12.70;99.90;;;;;;5071460;28;20041;-82
2022/10/17 01:14:43;;;;;;;8.55;2.95;;;12.70;99.90;;;;;;5056860;28;20037;-82
2022/10/17 01:17:33;;;;;;;11.20;2.67;;;12.80;99.90;;;;;;5070885;28;20045;-82
2022/10/17 01:20:11;;;;;;;11.32;3.17;;;12.80;99.90;;;;;;5070611;28;20071;-82
2022/10/17 01:22:48;;;;;;;9.35;2.90;;;12.90;99.90;;;;;;5068522;28;20044;-83
2022/10/17 01:25:35;;;;;;;4.75;2.75;;;12.90;99.90;;;;;;5070662;28;20040;-82
2022/10/17 01:28:24;;;;;;;8.68;2.80;;;12.90;99.90;;;;;;5070650;28;20494;-83
2022/10/17 01:31:12;;;;;;;8.25;3.33;;;12.90;99.90;;;;;;5053458;28;20040;-83
2022/10/17 01:33:57;;;;;;;9.07;3.33;;;13.00;99.90;;;;;;5052799;28;20048;-83
2022/10/17 01:36:55;;;;;;;7.63;3.50;;;13.00;99.90;;;;;;5070416;28;20036;-83
2022/10/17 01:39:53;;;;;;;9.52;3.28;;;13.00;99.90;;;;;;5023616;28;20052;-82
2022/10/17 01:42:52;;;;;;;6.55;2.97;;;13.00;99.90;;;;;;5041359;28;20103;-83
2022/10/17 01:45:28;;;;;;;8.82;3.92;;;13.10;99.90;;;;;;5059304;28;20493;-83
2022/10/17 01:47:57;;;;;;;8.32;3.40;;;13.10;99.90;;;;;;5068809;28;20028;-83
2022/10/17 01:50:31;;;;;;;7.10;3.58;;;13.10;99.90;;;;;;5053977;28;20518;-83
2022/10/17 01:53:14;;;;;;;9.85;3.63;;;13.10;99.90;;;;;;5069300;28;20029;-82
2022/10/17 01:55:43;;;;;;;10.73;3.83;;;13.10;99.90;;;;;;5069210;28;20048;-83
2022/10/17 01:58:20;;;;;;;11.52;3.78;;;13.00;99.90;;;;;;5069957;28;20042;-83
2022/10/17 02:00:47;;;;;;;10.50;3.78;;;13.10;99.90;;;;;;5052839;28;20111;-83
2022/10/17 02:03:18;;;;;;;7.43;3.92;;;13.10;99.90;;;;;;5053624;28;20032;-83
2022/10/17 02:05:44;;;;;;;9.77;3.80;;;13.10;99.90;;;;;;5070315;28;20033;-83
2022/10/17 02:08:10;;;;;;;7.80;4.13;;;13.10;99.90;;;;;;5053096;28;20036;-83
2022/10/17 02:11:11;;;;;;;9.10;4.53;;;13.10;99.90;;;;;;5070082;28;20044;-83
2022/10/17 02:14:03;;;;;;;8.82;3.97;;;13.00;99.90;;;;;;5046188;28;20052;-83
2022/10/17 02:16:46;;;;;;;8.82;4.32;;;13.00;99.90;;;;;;5051703;28;20078;-83
2022/10/17 02:19:15;;;;;;;9.63;4.47;;;12.90;99.90;;;;;;5070060;28;20123;-82
2022/10/17 02:21:52;;;;;;;10.63;4.53;;;12.90;99.90;;;;;;5070434;28;20111;-83
2022/10/17 02:24:36;;;;;;;9.27;4.60;;;12.90;99.90;;;;;;5070290;28;20040;-82
2022/10/17 02:27:09;;;;;;;8.30;4.18;;;12.90;99.90;;;;;;5069809;28;20041;-82
2022/10/17 02:29:44;;;;;;;7.68;4.30;;;12.90;99.90;;;;;;5070311;28;20052;-83
2022/10/17 02:32:17;;;;;;;9.32;4.68;;;12.90;99.90;;;;;;5068524;28;20508;-83
2022/10/17 02:34:48;;;;;;;11.80;5.03;;;12.90;99.90;;;;;;5074122;28;20080;-83
2022/10/17 02:37:18;;;;;;;6.93;4.30;;;12.90;99.90;;;;;;5073593;28;20139;-82
2022/10/17 02:39:45;;;;;;;11.70;5.55;;;13.00;99.90;;;;;;5074364;28;20123;-82
2022/10/17 02:42:12;;;;;;;9.82;4.97;;;12.90;99.90;;;;;;5073731;28;20422;-82
2022/10/17 02:44:42;;;;;;;6.68;5.13;;;12.90;99.90;;;;;;5073973;28;20086;-83
2022/10/17 02:47:20;;;;;;;9.43;4.97;;;12.90;99.90;;;;;;5057342;28;20049;-83
2022/10/17 02:49:57;;;;;;;7.10;5.07;;;12.90;99.90;;;;;;5074179;28;20036;-83
2022/10/17 02:52:28;;;;;;;8.65;5.28;;;12.90;99.90;;;;;;5073757;28;20398;-82
2022/10/17 02:55:04;;;;;;;8.57;5.30;;;12.90;99.90;;;;;;5071129;28;20072;-82
2022/10/17 02:57:40;;;;;;;10.88;5.25;;;12.90;99.90;;;;;;5073526;28;20045;-82
2022/10/17 03:00:09;;;;;;;8.13;5.38;;;12.90;99.90;;;;;;5055878;28;20082;-82
2022/10/17 03:02:47;;;;;;;10.00;5.70;;;12.80;99.90;;;;;;5071430;28;20047;-82
2022/10/17 03:05:16;;;;;;;9.63;5.88;;;12.80;99.90;;;;;;5073308;28;20098;-82
2022/10/17 03:07:42;;;;;;;10.05;5.18;;;12.80;99.90;;;;;;5073723;28;20040;-82
2022/10/17 03:10:08;;;;;;;9.15;5.40;;;12.80;99.90;;;;;;5073091;28;20120;-82
2022/10/17 03:12:33;;;;;;;9.25;5.75;;;12.80;99.90;;;;;;5073761;28;20427;-82
2022/10/17 03:14:59;;;;;;;9.33;6.00;;;12.80;99.90;;;;;;5056479;28;20047;-83
2022/10/17 03:17:25;;;;;;;11.37;5.97;;;12.80;99.90;;;;;;5073650;28;20278;-82
2022/10/17 03:19:50;;;;;;;8.57;5.33;;;12.80;99.90;;;;;;5073335;28;20282;-82
2022/10/17 03:22:16;;;;;;;10.63;5.90;;;12.70;99.90;;;;;;5072856;28;20333;-83
2022/10/17 03:24:41;;;;;;;9.30;6.00;;;12.70;99.90;;;;;;5056703;28;20400;-82
2022/10/17 03:27:07;;;;;;;11.57;6.32;;;12.70;99.90;;;;;;5072980;28;20048;-82
2022/10/17 03:29:33;;;;;;;10.23;6.00;;;12.70;99.90;;;;;;5056195;28;20079;-82
2022/10/17 03:31:58;;;;;;;10.27;6.47;;;12.70;99.90;;;;;;5073198;28;20059;-82
2022/10/17 03:34:24;;;;;;;8.77;6.13;;;12.70;99.90;;;;;;5056065;28;20170;-82
2022/10/17 03:36:50;;;;;;;8.53;5.83;;;12.70;99.90;;;;;;5056536;28;20802;-81
2022/10/17 03:39:15;;;;;;;8.00;6.10;;;12.70;99.90;;;;;;5055974;28;20279;-82
2022/10/17 03:41:41;;;;;;;9.15;6.18;;;12.70;99.90;;;;;;5039566;28;20378;-82
2022/10/17 03:44:07;;;;;;;7.80;6.20;;;12.70;99.90;;;;;;5055466;28;20447;-82
2022/10/17 03:46:32;;;;;;;9.37;6.53;;;12.70;99.90;;;;;;5072708;28;20755;-82
2022/10/17 03:48:58;;;;;;;11.35;6.18;;;12.70;99.90;;;;;;5072226;28;20040;-82
2022/10/17 03:51:24;;;;;;;9.38;6.45;;;12.70;99.90;;;;;;5072769;28;20089;-83
2022/10/17 03:53:50;;;;;;;10.40;6.83;;;12.70;99.90;;;;;;5072203;28;20689;-83
2022/10/17 03:56:21;;;;;;;9.30;6.90;;;12.70;99.90;;;;;;5072686;28;20286;-83
2022/10/17 03:58:47;;;;;;;13.10;7.28;;;12.70;99.90;;;;;;5072402;28;20090;-83
2022/10/17 04:01:15;;;;;;;11.18;7.45;;;12.70;99.90;;;;;;5055408;28;20044;-83
2022/10/17 04:03:42;;;;;;;11.23;7.75;;;12.70;99.90;;;;;;5072631;28;20043;-83
2022/10/17 04:06:10;;;;;;;12.60;7.20;;;12.70;99.90;;;;;;5072333;28;20128;-82
2022/10/17 04:08:36;;;;;;;13.55;8.02;;;12.70;99.90;;;;;;5072480;28;20040;-82
2022/10/17 04:11:05;;;;;;;10.57;7.35;;;12.70;99.90;;;;;;5056035;28;20040;-82
2022/10/17 04:13:30;;;;;;;13.52;7.47;;;12.80;99.90;;;;;;5072191;28;20042;-83
2022/10/17 04:16:05;;;;;;;12.23;7.97;;;12.80;99.90;;;;;;5072100;28;20399;-81
2022/10/17 04:18:31;;;;;;;14.60;7.70;;;12.80;99.90;;;;;;5053733;28;20082;-83
2022/10/17 04:20:59;;;;;;;10.23;7.75;;;12.80;99.90;;;;;;5071803;28;20043;-82
2022/10/17 04:23:26;;;;;;;11.60;8.35;;;12.90;99.90;;;;;;5070679;28;20092;-83
2022/10/17 04:25:55;;;;;;;10.68;8.25;;;12.90;99.90;;;;;;5071446;28;20044;-83
2022/10/17 04:28:21;;;;;;;13.90;9.07;;;13.00;99.90;;;;;;5071091;28;20037;-82
2022/10/17 04:30:54;;;;;;;16.33;8.70;;;13.00;99.90;;;;;;5055091;28;20094;-81
2022/10/17 04:33:19;;;;;;;11.73;8.30;;;13.00;99.90;;;;;;5070558;28;20045;-82
2022/10/17 04:36:03;;;;;;;12.63;9.03;;;13.00;99.90;;;;;;5056442;28;20037;-82
2022/10/17 04:38:30;;;;;;;14.65;9.02;;;13.10;99.90;;;;;;5072903;28;20306;-82
2022/10/17 04:41:03;;;;;;;11.90;8.80;;;13.10;99.90;;;;;;5072594;28;20040;-83
2022/10/17 04:43:38;;;;;;;12.95;9.23;;;13.20;99.90;;;;;;5072649;28;20044;-84
2022/10/17 04:46:07;;;;;;;11.88;8.95;;;13.20;99.90;;;;;;5066049;28;20040;-82
2022/10/17 04:48:33;;;;;;;18.25;10.07;;;13.20;99.90;;;;;;5072901;28;20051;-82
2022/10/17 04:51:07;;;;;;;12.57;8.57;;;13.30;99.90;;;;;;5057619;28;20032;-82
2022/10/17 04:53:35;;;;;;;12.57;9.15;;;13.30;99.90;;;;;;5054255;28;20397;-84
2022/10/17 04:56:01;;;;;;;12.90;9.50;;;13.30;99.90;;;;;;5070357;28;20051;-81
2022/10/17 04:58:29;;;;;;;17.08;9.60;;;13.40;99.90;;;;;;5054947;28;20508;-81
2022/10/17 05:00:55;;;;;;;13.05;9.43;;;13.40;99.90;;;;;;5069094;28;20060;-82
2022/10/17 05:03:21;;;;;;;17.80;9.40;;;13.40;99.90;;;;;;5053868;28;20094;-82
2022/10/17 05:05:47;;;;;;;14.43;10.10;;;13.40;99.90;;;;;;5071157;28;20094;-82
2022/10/17 05:08:12;;;;;;;15.98;10.00;;;13.40;99.90;;;;;;5037459;28;20546;-81
2022/10/17 05:10:41;;;;;;;14.75;9.60;;;13.40;99.90;;;;;;5054400;28;20068;-82
2022/10/17 05:13:07;;;;;;;12.07;9.85;;;13.50;99.90;;;;;;5054208;28;20033;-81
2022/10/17 05:15:34;;;;;;;14.18;10.98;;;13.50;99.90;;;;;;5054125;28;20107;-81
2022/10/17 05:18:00;;;;;;;15.07;10.00;;;13.50;99.90;;;;;;5071229;28;20785;-81
2022/10/17 05:20:26;;;;;;;14.13;9.88;;;13.50;99.90;;;;;;5070827;28;20036;-81
2022/10/17 05:22:52;;;;;;;15.85;10.27;;;13.50;99.90;;;;;;5071009;28;20068;-81
2022/10/17 05:25:18;;;;;;;15.93;10.52;;;13.50;99.90;;;;;;5070380;28;20048;-81
2022/10/17 05:27:44;;;;;;;16.65;10.98;;;13.50;99.90;;;;;;5053712;28;20041;-81
2022/10/17 05:30:10;;;;;;;13.23;10.05;;;13.50;99.90;;;;;;5070036;28;20174;-81
2022/10/17 05:32:35;;;;;;;;;;;13.50;99.90;;;;;;5070425;28;20089;-81
2022/10/17 05:35:03;;;;;;;16.40;10.80;;;13.50;99.90;;;;;;5070701;28;20003;-81
2022/10/17 05:37:29;;;;;;;18.17;10.70;;;13.60;99.90;;;;;;5053865;28;20068;-82
2022/10/17 05:39:55;;;;;;;19.00;11.55;;;13.60;99.90;;;;;;5054571;28;20492;-82
2022/10/17 05:42:21;;;;;;;16.73;11.52;;;13.60;99.90;;;;;;5069569;28;20071;-82
2022/10/17 05:44:47;;;;;;;16.33;9.88;;;13.60;99.90;;;;;;5070303;28;20058;-82
2022/10/17 05:47:12;;;;;;;14.85;10.80;;;13.60;99.90;;;;;;5070054;28;20043;-81
2022/10/17 05:49:38;;;;;;;19.08;12.77;;;13.60;99.90;;;;;;5038125;28;20048;-82
2022/10/17 05:52:04;;;;;;;18.15;11.30;;;13.60;99.90;;;;;;5054149;28;20055;-82
2022/10/17 05:54:30;;;;;;;20.02;12.15;;;13.70;99.90;;;;;;5069977;28;20053;-81
2022/10/17 05:56:56;;;;;;;16.17;11.48;;;13.70;99.90;;;;;;5053967;28;20495;-81
2022/10/17 05:59:24;;;;;;;18.13;12.23;;;13.70;99.90;;;;;;5069895;28;20059;-81
2022/10/17 06:01:50;;;;;;;18.17;11.77;;;13.70;99.90;;;;;;5070328;28;20036;-82
2022/10/17 06:04:16;;;;;;;16.73;11.85;;;13.80;99.90;;;;;;5069973;28;20045;-82
2022/10/17 06:06:42;;;;;;;17.67;12.70;;;13.80;99.90;;;;;;5070562;28;20119;-82
2022/10/17 06:09:08;;;;;;;17.48;12.95;;;13.80;99.90;;;;;;5069638;28;20040;-81
2022/10/17 06:11:34;;;;;;;16.25;11.80;;;13.90;99.90;;;;;;5053534;28;20040;-82
2022/10/17 06:14:00;;;;;;;;;;;13.90;99.90;;;;;;5070621;28;20047;-81
2022/10/17 06:16:25;;;;;;;19.85;12.68;;;13.90;99.90;;;;;;5069651;28;19916;-81
2022/10/17 06:18:51;;;;;;;18.95;11.95;;;14.00;99.90;;;;;;5053654;28;20043;-82
2022/10/17 06:21:23;;;;;;;16.75;11.27;;;14.00;99.90;;;;;;5052596;28;20117;-82
2022/10/17 06:23:48;;;;;;;16.45;11.82;;;14.00;99.90;;;;;;5053166;28;20041;-82
2022/10/17 06:26:14;;;;;;;19.60;12.95;;;14.10;99.90;;;;;;5052789;28;20051;-82
2022/10/17 06:28:41;;;;;;;19.50;12.65;;;14.10;99.90;;;;;;5053816;28;20400;-82
2022/10/17 06:31:08;;;;;;;;;;;14.20;99.90;;;;;;5070405;28;20037;-82
2022/10/17 06:33:33;;;;;;;19.15;11.40;;;14.10;99.90;;;;;;5069049;28;19920;-82
2022/10/17 06:35:59;;;;;;;19.38;12.02;;;14.20;99.90;;;;;;5053131;28;20415;-82
2022/10/17 06:38:25;;;;;;;16.13;11.40;;;14.20;99.90;;;;;;5035466;28;20516;-82
2022/10/17 06:40:52;;;;;;;17.75;12.23;;;14.20;99.90;;;;;;5053288;28;20111;-83
2022/10/17 06:43:18;;;;;;;18.20;11.98;;;14.20;99.90;;;;;;5052643;28;20107;-82
2022/10/17 06:45:47;;;;;;;16.77;12.70;;;14.30;99.90;;;;;;5053429;28;20051;-82
2022/10/17 06:48:13;;;;;;;21.00;12.23;;;14.30;99.90;;;;;;5053080;28;20040;-83
2022/10/17 06:50:39;;;;;;;21.83;12.65;;;14.30;99.90;;;;;;5070024;28;20074;-82
2022/10/17 06:53:05;;;;;;;16.83;12.35;;;14.30;99.90;;;;;;5036975;28;20075;-82
2022/10/17 06:55:31;;;;;;;17.58;11.40;;;14.40;99.90;;;;;;5069128;28;20047;-82
2022/10/17 06:57:57;;;;;;;18.77;12.30;;;14.40;99.90;;;;;;5034757;28;20043;-82
2022/10/17 07:00:23;;;;;;;18.77;11.88;;;14.40;99.90;;;;;;5052456;28;20407;-82
2022/10/17 07:02:48;;;;;;;18.42;11.63;;;14.40;99.90;;;;;;5070313;28;20055;-82
2022/10/17 07:05:14;;;;;;;20.73;12.40;;;14.40;99.90;;;;;;5069347;28;20044;-82
2022/10/17 07:07:40;;;;;;;17.27;11.75;;;14.40;99.90;;;;;;5036463;28;20048;-82
2022/10/17 07:10:09;;;;;;;20.20;12.73;;;14.40;99.90;;;;;;5036143;28;20118;-82
2022/10/17 07:12:34;;;;;;;20.33;12.05;;;14.40;99.90;;;;;;5052486;28;20045;-83
2022/10/17 07:15:03;;;;;;;17.77;11.70;;;14.50;99.90;;;;;;5069338;28;20036;-83
2022/10/17 07:17:29;;;;;;;18.05;11.77;;;14.50;99.90;;;;;;5068931;28;20428;-83
2022/10/17 07:19:54;;;;;;;15.75;11.02;;;14.60;99.90;;;;;;5070502;28;20029;-83
2022/10/17 07:22:20;;;;;;;16.40;11.27;;;14.60;99.90;;;;;;5072404;28;20059;-83
2022/10/17 07:24:46;;;;;;;15.38;11.15;;;14.70;99.90;;;;;;5072856;28;20091;-83
2022/10/17 07:27:13;;;;;;;16.00;11.68;;;14.80;99.90;;;;;;5056409;28;20460;-83
2022/10/17 07:29:39;;;;;;;15.13;10.82;;;14.90;99.90;;;;;;5056094;28;20561;-82
2022/10/17 07:32:07;;;;;;;15.45;11.20;;;15.00;99.90;;;;;;5039783;28;20036;-82
2022/10/17 07:34:34;;;;;;;16.15;11.07;;;15.00;99.90;;;;;;5072110;28;20447;-82
2022/10/17 07:37:00;;;;;;;14.95;10.65;;;15.10;99.90;;;;;;5072438;28;20037;-81
2022/10/17 07:39:26;;;;;;;15.48;10.40;;;15.20;99.90;;;;;;5071926;28;20155;-82
2022/10/17 07:41:52;;;;;;;15.90;10.60;;;15.30;99.90;;;;;;5056112;28;20120;-82
2022/10/17 07:44:17;;;;;;;14.07;9.80;;;15.40;99.90;;;;;;5055309;28;20043;-82
2022/10/17 07:46:43;;;;;;;14.93;9.88;;;15.40;99.90;;;;;;5039493;28;20040;-82
2022/10/17 07:49:09;;;;;;;13.43;9.43;;;15.50;99.90;;;;;;5072422;28;20496;-82
2022/10/17 07:51:35;;;;;;;12.93;9.90;;;15.50;99.90;;;;;;5071239;28;20045;-81
2022/10/17 07:54:00;;;;;;;13.65;8.90;;;15.60;99.90;;;;;;5072545;28;20040;-83
2022/10/17 07:56:28;;;;;;;11.45;8.88;;;15.70;99.90;;;;;;5055261;28;20048;-82
2022/10/17 07:58:55;;;;;;;12.10;9.18;;;15.70;99.90;;;;;;5055820;28;20075;-82
2022/10/17 08:01:21;;;;;;;14.63;9.23;;;15.80;99.90;;;;;;5071627;28;20036;-82
2022/10/17 08:03:49;;;;;;;9.73;7.80;;;15.90;99.90;;;;;;5055266;28;20048;-83
2022/10/17 08:06:15;;;;;;;12.73;7.85;;;16.40;99.90;;;;;;5039553;28;20036;-82
2022/10/17 08:08:41;;;;;;;11.20;7.30;;;17.20;99.90;;;;;;5039083;28;20094;-82
2022/10/17 08:11:09;;;;;;;;;;;17.80;99.90;;;;;;5072545;28;20040;-83
2022/10/17 08:13:35;;;;;;;9.15;7.30;;;18.10;99.90;;;;;;5071720;28;19920;-83
2022/10/17 08:16:02;;;;;;;;;;;18.10;99.90;;;;;;5055743;28;20029;-82
2022/10/17 08:18:28;;;;;;;9.00;6.75;;;17.90;99.90;;;;;;5052596;28;19916;-83
2022/10/17 08:20:54;;;;;;;9.43;7.07;;;17.70;99.90;;;;;;5072259;28;20128;-82
2022/10/17 08:23:20;;;;;;;9.70;7.32;;;17.60;99.90;;;;;;5054972;28;20071;-83
2022/10/17 08:25:45;;;;;;;11.88;7.10;;;17.50;99.90;;;;;;5066945;28;20032;-82
2022/10/17 08:28:11;;;;;;;12.45;7.55;;;17.40;99.90;;;;;;5055142;28;20036;-82
2022/10/17 08:30:37;;;;;;;9.98;7.45;;;17.30;99.90;;;;;;5054036;28;20048;-83
2022/10/17 08:33:02;;;;;;;12.25;7.55;;;17.20;99.90;;;;;;5071927;28;20123;-82
2022/10/17 08:35:28;;;;;;;11.75;7.72;;;17.20;99.90;;;;;;5071052;28;20045;-82
2022/10/17 08:37:54;;;;;;;11.23;7.45;;;17.10;99.90;;;;;;5054734;28;20105;-83
2022/10/17 08:40:24;;;;;;;9.27;7.32;;;17.10;99.90;;;;;;5054909;28;20391;-82
2022/10/17 08:43:08;;;;;;;10.15;7.30;;;17.00;99.90;;;;;;5071398;28;20111;-82
2022/10/17 08:45:50;;;;;;;9.88;8.07;;;17.10;99.90;;;;;;5070724;28;20500;-83
2022/10/17 08:48:20;;;;;;;9.88;7.22;;;17.10;99.90;;;;;;5069515;28;20435;-83
2022/10/17 08:50:57;;;;;;;9.80;7.00;;;17.10;99.90;;;;;;5071404;28;20051;-83
2022/10/17 08:53:31;;;;;;;12.48;6.93;;;17.10;99.90;;;;;;5054168;28;20028;-83
2022/10/17 08:56:04;;;;;;;9.00;7.07;;;17.10;99.90;;;;;;5071712;28;20187;-83
2022/10/17 08:58:34;;;;;;;11.45;7.35;;;17.20;99.90;;;;;;5070916;28;20536;-83
2022/10/17 09:01:02;;;;;;;12.40;7.03;;;17.20;99.90;;;;;;5071451;28;20074;-84
2022/10/17 09:03:49;;;;;;;10.35;6.85;;;17.30;99.90;;;;;;5070813;28;20060;-83
2022/10/17 09:06:31;;;;;;;8.73;6.80;;;17.20;99.90;;;;;;5070806;28;20449;-82
2022/10/17 09:09:30;;;;;;;11.35;7.32;;;17.20;99.90;;;;;;5054694;28;20098;-83
2022/10/17 09:12:15;;;;;;;9.70;6.82;;;17.20;99.90;;;;;;5069342;28;20048;-82
2022/10/17 09:15:14;;;;;;;10.15;6.57;;;17.20;99.90;;;;;;5070318;28;20043;-84
2022/10/17 09:18:16;;;;;;;10.23;6.07;;;17.20;99.90;;;;;;5052943;28;20162;-82
2022/10/17 09:20:52;;;;;;;8.68;5.65;;;17.50;99.90;;;;;;5070157;28;20075;-82
2022/10/17 09:23:29;;;;;;;8.73;5.82;;;17.50;99.90;;;;;;5070380;28;20039;-81
2022/10/17 09:25:59;;;;;;;9.90;6.32;;;17.50;99.90;;;;;;5068517;28;20507;-81
2022/10/17 09:28:35;;;;;;;10.30;6.68;;;17.60;99.90;;;;;;5052927;28;20090;-82
2022/10/17 09:31:10;;;;;;;8.20;5.80;;;17.60;99.90;;;;;;5070677;28;20089;-82
2022/10/17 09:33:45;;;;;;;10.88;6.85;;;17.50;99.90;;;;;;5069838;28;20070;-81
2022/10/17 09:36:33;;;;;;;11.05;6.85;;;17.50;99.90;;;;;;5068673;28;20543;-82
2022/10/17 09:39:03;;;;;;;13.15;5.95;;;17.50;99.90;;;;;;5069630;28;20048;-84
2022/10/17 09:41:46;;;;;;;8.63;6.30;;;17.50;99.90;;;;;;5069849;28;20028;-83
2022/10/17 09:44:18;;;;;;;10.80;6.43;;;17.60;99.90;;;;;;5047492;28;20121;-82
2022/10/17 09:46:59;;;;;;;9.55;6.45;;;17.50;99.90;;;;;;5051893;28;20071;-82
2022/10/17 09:49:36;;;;;;;9.15;6.80;;;17.50;99.90;;;;;;5068753;28;20399;-82
2022/10/17 09:52:05;;;;;;;9.48;7.10;;;17.60;99.90;;;;;;5068755;28;20028;-83
2022/10/17 09:55:00;;;;;;;10.07;7.35;;;17.50;99.90;;;;;;5069575;28;20111;-82
2022/10/17 09:57:26;;;;;;;9.85;7.43;;;17.50;99.90;;;;;;5048342;28;20488;-82
2022/10/17 10:00:01;;;;;;;10.38;8.55;;;17.40;99.90;;;;;;5053847;28;20066;-83
2022/10/17 10:02:29;;;;;;;13.57;8.35;;;17.30;99.90;;;;;;5067191;28;20032;-83
2022/10/17 10:05:00;;;;;;;11.55;8.30;;;17.30;99.90;;;;;;5070329;28;20575;-82
2022/10/17 10:07:39;;;;;;;10.40;8.30;;;17.20;99.90;;;;;;5053252;28;20036;-82
2022/10/17 10:10:22;;;;;;;14.85;8.98;;;17.10;99.90;;;;;;5050885;28;20043;-81
2022/10/17 10:13:02;;;;;;;12.90;8.93;;;17.00;99.90;;;;;;5068166;28;20449;-81
2022/10/17 10:15:36;;;;;;;14.90;9.73;;;16.90;99.90;;;;;;5059729;28;20045;-79
2022/10/17 10:18:02;;;;;;;14.45;10.20;;;16.80;99.90;;;;;;5068312;28;20431;-79
2022/10/17 10:20:34;;;;;;;20.15;10.80;;;16.70;99.90;;;;;;5069565;28;20532;-79
2022/10/17 10:23:17;;;;;;;14.65;10.43;;;16.70;99.90;;;;;;5067852;28;20082;-78
2022/10/17 10:26:00;;;;;;;11.82;9.95;;;16.60;99.90;;;;;;5068009;28;20059;-79
2022/10/17 10:28:29;;;;;;;14.55;9.95;;;16.60;99.90;;;;;;5069572;28;20384;-79
2022/10/17 10:30:57;;;;;;;18.30;10.90;;;16.50;99.90;;;;;;5069531;28;20045;-79
2022/10/17 10:33:26;;;;;;;15.45;11.10;;;16.50;99.90;;;;;;5069410;28;20035;-79
2022/10/17 10:36:00;;;;;;;15.70;10.85;;;16.50;99.90;;;;;;5069170;28;20480;-79
2022/10/17 10:38:27;;;;;;;17.20;10.77;;;16.40;99.90;;;;;;5050384;28;20082;-79
2022/10/17 10:41:06;;;;;;;17.48;11.82;;;16.40;99.90;;;;;;5050994;28;20049;-79
2022/10/17 10:43:37;;;;;;;14.93;11.85;;;16.40;99.90;;;;;;5067816;28;20133;-80
2022/10/17 10:46:20;;;;;;;17.55;11.27;;;16.40;99.90;;;;;;5064863;28;20037;-79
2022/10/17 10:48:52;;;;;;;17.50;11.55;;;16.40;99.90;;;;;;5066276;28;20476;-79
2022/10/17 10:51:23;;;;;;;16.80;11.55;;;16.40;99.90;;;;;;5050896;28;20033;-79
2022/10/17 10:53:54;;;;;;;19.48;11.65;;;16.40;99.90;;;;;;5069091;28;20036;-80
2022/10/17 10:56:24;;;;;;;15.20;11.75;;;16.40;99.90;;;;;;5073042;28;20091;-79
2022/10/17 10:59:18;;;;;;;19.00;11.35;;;16.40;99.90;;;;;;5053959;28;20111;-79
2022/10/17 11:01:58;;;;;;;17.42;11.15;;;16.40;99.90;;;;;;5072225;28;20110;-79
2022/10/17 11:04:48;;;;;;;16.10;11.10;;;16.40;99.90;;;;;;5069523;28;20044;-79
2022/10/17 11:07:31;;;;;;;15.25;10.60;;;16.40;99.90;;;;;;5071373;28;20036;-80
2022/10/17 11:10:31;;;;;;;20.65;11.70;;;16.50;99.90;;;;;;5069446;28;20040;-80
2022/10/17 11:13:12;;;;;;;19.70;11.82;;;16.50;99.90;;;;;;5071756;28;20365;-80
2022/10/17 11:16:15;;;;;;;20.45;12.55;;;16.50;99.90;;;;;;5071309;28;20127;-80
2022/10/17 11:18:51;;;;;;;19.67;12.35;;;16.60;99.90;;;;;;5071189;28;21396;-79
2022/10/17 11:21:41;;;;;;;14.27;10.65;;;16.60;99.90;;;;;;5055879;28;20040;-80
2022/10/17 11:24:23;;;;;;;17.65;10.70;;;16.70;99.90;;;;;;5054919;28;20094;-80
2022/10/17 11:27:00;;;;;;;20.27;11.63;;;16.70;99.90;;;;;;5055971;28;20045;-81
2022/10/17 11:29:35;;;;;;;16.00;11.50;;;16.70;99.90;;;;;;5054935;28;20040;-81
2022/10/17 11:32:42;;;;;;;17.17;11.10;;;16.80;99.90;;;;;;5068876;28;20040;-81
2022/10/17 11:35:38;;;;;;;13.80;10.37;;;16.80;99.90;;;;;;5087510;28;20045;-81
2022/10/17 11:38:20;;;;;;;18.25;11.30;;;16.80;99.90;;;;;;5070305;28;20048;-81
2022/10/17 11:40:50;;;;;;;15.88;10.18;;;16.80;99.90;;;;;;5071091;28;20097;-81
2022/10/17 11:43:31;;;;;;;17.40;10.05;;;16.80;99.90;;;;;;5072305;28;20033;-80
2022/10/17 11:46:26;;;;;;;15.85;9.98;;;16.80;99.90;;;;;;5070565;28;20124;-80
2022/10/17 11:49:19;;;;;;;16.13;10.10;;;16.70;99.90;;;;;;5068956;28;20048;-80
2022/10/17 11:51:50;;;;;;;12.65;9.48;;;16.70;99.90;;;;;;5070160;28;20040;-80
2022/10/17 11:54:23;;;;;;;15.52;10.20;;;16.60;99.90;;;;;;5055856;28;20063;-80
2022/10/17 11:57:07;;;;;;;14.50;9.88;;;16.70;99.90;;;;;;5072284;28;20562;-80
2022/10/17 11:59:55;;;;;;;15.45;10.85;;;16.70;99.90;;;;;;5069009;28;20048;-81
2022/10/17 12:02:48;;;;;;;15.02;10.68;;;16.60;99.90;;;;;;5072315;28;20120;-81
2022/10/17 12:05:32;;;;;;;13.68;10.15;;;16.60;99.90;;;;;;5070242;28;20040;-81
2022/10/17 12:08:33;;;;;;;14.32;9.85;;;16.60;99.90;;;;;;5054009;28;20131;-80
2022/10/17 12:11:37;;;;;;;13.75;9.27;;;16.70;99.90;;;;;;5062386;28;20056;-80
2022/10/17 12:14:44;;;;;;;13.20;8.68;;;16.70;99.90;;;;;;5047247;28;20048;-80
2022/10/17 12:17:31;;;;;;;12.80;8.32;;;16.80;99.90;;;;;;5069914;28;20039;-80
2022/10/17 12:20:24;;;;;;;10.15;6.78;;;16.80;99.90;;;;;;5071349;28;20033;-80
2022/10/17 12:23:03;;;;;;;10.48;7.43;;;16.90;99.90;;;;;;5070559;28;20423;-80
2022/10/17 12:25:32;;;;;;;15.25;8.68;;;16.90;99.90;;;;;;5070640;28;20040;-81
2022/10/17 12:28:25;;;;;;;11.55;8.35;;;17.00;99.90;;;;;;5069304;28;20055;-81
2022/10/17 12:31:04;;;;;;;9.85;7.03;;;17.20;99.90;;;;;;5052614;28;20435;-80
2022/10/17 12:33:52;;;;;;;9.10;6.53;;;17.30;99.90;;;;;;5068984;28;20123;-80
2022/10/17 12:36:17;;;;;;;8.93;5.82;;;17.30;99.90;;;;;;5068002;28;20060;-81
2022/10/17 12:38:44;;;;;;;9.82;5.35;;;17.30;99.90;;;;;;5070458;28;20404;-80
2022/10/17 12:41:10;;;;;;;6.40;5.00;;;17.40;99.90;;;;;;5054734;28;20046;-80
2022/10/17 12:43:51;;;;;;;6.35;5.32;;;17.30;99.90;;;;;;5054564;28;20115;-81
2022/10/17 12:46:44;;;;;;;7.57;5.22;;;17.30;99.90;;;;;;5053945;28;20037;-80
2022/10/17 12:49:38;;;;;;;6.43;4.70;;;17.20;99.90;;;;;;5071296;28;20048;-80
2022/10/17 12:52:18;;;;;;;5.80;4.47;;;17.20;99.90;;;;;;5069973;28;20401;-81
2022/10/17 12:54:47;;;;;;;7.72;4.80;;;17.10;99.90;;;;;;5053796;28;20373;-80
2022/10/17 12:57:34;;;;;;;8.52;5.00;;;17.10;99.90;;;;;;5066622;28;20036;-81
2022/10/17 13:00:14;;;;;;;6.22;4.40;;;17.00;99.90;;;;;;5070198;28;20089;-81
2022/10/17 13:02:41;;;;;;;6.85;4.50;;;17.00;99.90;;;;;;5070369;28;20045;-81
2022/10/17 13:05:10;;;;;;;;;;;16.90;99.90;;;;;;5071107;28;20431;-80